createdAt,value
2022-11-20T00:00:13.819Z,8.60
2022-11-20T00:01:13.793Z,8.70
2022-11-20T00:02:14.553Z,8.50
2022-11-20T00:03:13.848Z,8.80
2022-11-20T00:04:13.767Z,8.30
2022-11-20T00:05:13.751Z,9.10
2022-11-20T00:06:13.753Z,8.70
2022-11-20T00:07:13.757Z,8.50
2022-11-20T00:08:13.744Z,8.30
2022-11-20T00:09:13.692Z,7.90
2022-11-20T00:10:13.737Z,8.30
2022-11-20T00:11:16.518Z,8.10
2022-11-20T00:12:13.687Z,7.80
2022-11-20T00:13:13.685Z,7.80
2022-11-20T00:14:13.653Z,8.40
2022-11-20T00:15:13.652Z,7.90
2022-11-20T00:16:13.661Z,7.60
2022-11-20T00:17:13.596Z,8.20
2022-11-20T00:18:13.589Z,8.60
2022-11-20T00:19:13.629Z,7.70
2022-11-20T00:20:13.589Z,7.70
2022-11-20T00:21:13.581Z,7.70
2022-11-20T00:22:13.583Z,7.80
2022-11-20T00:23:13.560Z,7.20
2022-11-20T00:24:13.521Z,7.10
2022-11-20T00:25:13.566Z,7.40
2022-11-20T00:26:13.498Z,7.50
2022-11-20T00:27:13.561Z,7.40
2022-11-20T00:28:13.507Z,7.60
2022-11-20T00:29:13.496Z,7.10
2022-11-20T00:30:15.047Z,7.70
2022-11-20T00:31:13.474Z,6.70
2022-11-20T00:32:13.454Z,6.80
2022-11-20T00:33:13.532Z,7.10
2022-11-20T00:34:13.443Z,7.60
2022-11-20T00:35:13.431Z,7.00
2022-11-20T00:36:13.398Z,6.80
2022-11-20T00:37:13.436Z,6.50
2022-11-20T00:38:14.233Z,6.90
2022-11-20T00:39:13.550Z,6.80
2022-11-20T00:40:13.382Z,6.10
2022-11-20T00:41:13.368Z,6.60
2022-11-20T00:42:13.357Z,7.00
2022-11-20T00:43:14.656Z,6.50
2022-11-20T00:44:13.310Z,6.30
2022-11-20T00:45:13.356Z,6.10
2022-11-20T00:46:13.287Z,6.30
2022-11-20T00:47:13.792Z,6.30
2022-11-20T00:48:13.311Z,6.40
2022-11-20T00:49:13.280Z,6.40
2022-11-20T00:50:13.244Z,5.90
2022-11-20T00:51:13.301Z,6.30
2022-11-20T00:52:13.252Z,6.10
2022-11-20T00:53:14.793Z,5.80
2022-11-20T00:54:13.233Z,5.70
2022-11-20T00:55:13.218Z,5.90
2022-11-20T00:56:13.198Z,6.30
2022-11-20T00:57:13.225Z,6.50
2022-11-20T00:58:14.471Z,5.80
2022-11-20T00:59:13.205Z,5.40
2022-11-20T01:00:13.242Z,6.30
2022-11-20T01:01:13.227Z,5.90
2022-11-20T01:02:13.148Z,5.60
2022-11-20T01:03:13.146Z,5.80
2022-11-20T01:04:13.097Z,6.10
2022-11-20T01:05:13.140Z,6.00
2022-11-20T01:06:13.101Z,5.70
2022-11-20T01:07:13.142Z,5.70
2022-11-20T01:08:13.058Z,6.10
2022-11-20T01:09:13.099Z,5.40
2022-11-20T01:10:13.038Z,5.20
2022-11-20T01:11:13.078Z,5.50
2022-11-20T01:12:13.054Z,5.70
2022-11-20T01:13:13.032Z,5.50
2022-11-20T01:14:13.016Z,5.20
2022-11-20T01:15:13.007Z,5.80
2022-11-20T01:16:12.969Z,5.40
2022-11-20T01:17:13.015Z,5.50
2022-11-20T01:18:12.958Z,5.00
2022-11-20T01:19:17.513Z,5.60
2022-11-20T01:20:12.985Z,5.00
2022-11-20T01:21:12.947Z,4.90
2022-11-20T01:22:12.948Z,5.20
2022-11-20T01:23:13.379Z,4.90
2022-11-20T01:24:12.883Z,5.20
2022-11-20T01:25:12.926Z,5.10
2022-11-20T01:26:12.869Z,4.70
2022-11-20T01:27:12.910Z,4.70
2022-11-20T01:28:12.869Z,4.70
2022-11-20T01:29:12.867Z,5.00
2022-11-20T01:30:12.850Z,4.60
2022-11-20T01:31:12.838Z,4.90
2022-11-20T01:32:12.804Z,5.10
2022-11-20T01:33:12.847Z,4.70
2022-11-20T01:34:12.780Z,4.70
2022-11-20T01:35:13.169Z,4.70
2022-11-20T01:36:12.787Z,4.80
2022-11-20T01:37:12.777Z,5.10
2022-11-20T01:38:12.734Z,4.60
2022-11-20T01:39:12.781Z,4.70
2022-11-20T01:40:12.744Z,4.50
2022-11-20T01:41:12.740Z,4.70
2022-11-20T01:42:12.724Z,4.50
2022-11-20T01:43:12.741Z,4.50
2022-11-20T01:44:12.674Z,4.30
2022-11-20T01:45:12.731Z,4.60
2022-11-20T01:46:12.700Z,4.70
2022-11-20T01:47:12.808Z,4.30
2022-11-20T01:48:12.670Z,4.30
2022-11-20T01:49:12.646Z,4.70
2022-11-20T01:50:13.069Z,4.30
2022-11-20T01:51:12.625Z,4.40
2022-11-20T01:52:13.523Z,4.20
2022-11-20T01:53:12.631Z,4.30
2022-11-20T01:54:12.591Z,4.10
2022-11-20T01:55:12.588Z,4.30
2022-11-20T01:56:12.549Z,4.20
2022-11-20T01:57:12.593Z,4.60
2022-11-20T01:58:12.525Z,3.90
2022-11-20T01:59:12.568Z,3.80
2022-11-20T02:00:12.529Z,4.00
2022-11-20T02:01:13.216Z,4.00
2022-11-20T02:02:12.509Z,4.10
2022-11-20T02:03:12.497Z,4.20
2022-11-20T02:04:12.460Z,3.80
2022-11-20T02:05:12.505Z,3.90
2022-11-20T02:06:12.439Z,3.80
2022-11-20T02:07:12.525Z,3.70
2022-11-20T02:08:12.444Z,4.50
2022-11-20T02:09:12.434Z,4.00
2022-11-20T02:10:12.439Z,4.00
2022-11-20T02:11:12.441Z,4.20
2022-11-20T02:12:12.408Z,3.90
2022-11-20T02:13:12.393Z,4.00
2022-11-20T02:14:13.426Z,4.00
2022-11-20T02:15:12.689Z,3.50
2022-11-20T02:16:12.339Z,3.70
2022-11-20T02:17:12.382Z,3.60
2022-11-20T02:18:12.312Z,4.50
2022-11-20T02:19:12.358Z,4.20
2022-11-20T02:20:12.320Z,3.50
2022-11-20T02:21:12.310Z,3.50
2022-11-20T02:22:12.296Z,3.50
2022-11-20T02:23:12.289Z,3.50
2022-11-20T02:24:12.682Z,3.80
2022-11-20T02:25:12.294Z,3.90
2022-11-20T02:26:12.229Z,4.10
2022-11-20T02:27:12.269Z,3.40
2022-11-20T02:28:12.233Z,3.70
2022-11-20T02:29:12.235Z,3.50
2022-11-20T02:30:12.258Z,3.20
2022-11-20T02:31:12.221Z,3.40
2022-11-20T02:32:12.165Z,3.60
2022-11-20T02:33:12.205Z,3.40
2022-11-20T02:34:15.030Z,3.40
2022-11-20T02:35:12.186Z,3.30
2022-11-20T02:36:12.146Z,3.50
2022-11-20T02:37:12.780Z,3.10
2022-11-20T02:38:12.125Z,3.40
2022-11-20T02:39:12.119Z,3.00
2022-11-20T02:40:12.081Z,3.70
2022-11-20T02:41:13.060Z,3.30
2022-11-20T02:42:12.087Z,3.20
2022-11-20T02:43:12.079Z,3.70
2022-11-20T02:44:12.037Z,3.60
2022-11-20T02:45:13.901Z,3.50
2022-11-20T02:46:12.015Z,3.50
2022-11-20T02:47:12.058Z,3.60
2022-11-20T02:48:12.029Z,3.70
2022-11-20T02:49:12.009Z,3.00
2022-11-20T02:50:11.997Z,3.40
2022-11-20T02:51:12.447Z,3.50
2022-11-20T02:52:11.964Z,3.50
2022-11-20T02:53:12.569Z,3.50
2022-11-20T02:54:11.931Z,3.20
2022-11-20T02:55:11.974Z,3.80
2022-11-20T02:56:11.938Z,3.40
2022-11-20T02:57:11.925Z,3.70
2022-11-20T02:58:11.893Z,3.10
2022-11-20T02:59:11.932Z,3.40
2022-11-20T03:00:11.895Z,3.20
2022-11-20T03:01:11.954Z,3.40
2022-11-20T03:02:11.876Z,3.60
2022-11-20T03:03:11.965Z,3.40
2022-11-20T03:04:11.833Z,3.50
2022-11-20T03:05:11.867Z,3.50
2022-11-20T03:06:11.806Z,3.40
2022-11-20T03:07:12.731Z,3.50
2022-11-20T03:08:11.810Z,3.30
2022-11-20T03:09:11.798Z,3.20
2022-11-20T03:10:11.788Z,3.20
2022-11-20T03:11:11.778Z,3.00
2022-11-20T03:12:11.741Z,3.60
2022-11-20T03:13:11.790Z,3.50
2022-11-20T03:14:11.762Z,3.30
2022-11-20T03:15:11.737Z,3.50
2022-11-20T03:16:11.701Z,3.40
2022-11-20T03:17:11.741Z,3.20
2022-11-20T03:18:11.684Z,3.00
2022-11-20T03:19:11.722Z,3.30
2022-11-20T03:20:11.687Z,3.60
2022-11-20T03:21:11.683Z,3.40
2022-11-20T03:22:11.661Z,3.10
2022-11-20T03:23:12.481Z,3.40
2022-11-20T03:24:11.615Z,3.20
2022-11-20T03:25:11.751Z,3.10
2022-11-20T03:26:11.595Z,3.10
2022-11-20T03:27:11.608Z,3.30
2022-11-20T03:28:13.866Z,3.20
2022-11-20T03:29:11.593Z,3.30
2022-11-20T03:30:11.579Z,3.00
2022-11-20T03:31:11.570Z,3.20
2022-11-20T03:32:11.531Z,3.20
2022-11-20T03:33:11.576Z,2.90
2022-11-20T03:34:11.633Z,3.00
2022-11-20T03:35:11.833Z,3.10
2022-11-20T03:36:11.534Z,3.00
2022-11-20T03:37:12.521Z,3.10
2022-11-20T03:38:11.521Z,3.10
2022-11-20T03:39:11.520Z,3.10
2022-11-20T03:40:11.464Z,2.90
2022-11-20T03:41:11.490Z,2.90
2022-11-20T03:42:11.715Z,3.50
2022-11-20T03:43:11.471Z,2.80
2022-11-20T03:44:12.755Z,3.00
2022-11-20T03:45:11.422Z,2.80
2022-11-20T03:46:11.411Z,3.10
2022-11-20T03:47:11.453Z,3.30
2022-11-20T03:48:11.386Z,2.90
2022-11-20T03:49:11.383Z,3.20
2022-11-20T03:50:11.377Z,2.70
2022-11-20T03:51:11.357Z,3.00
2022-11-20T03:52:11.322Z,3.10
2022-11-20T03:53:11.405Z,2.80
2022-11-20T03:54:11.322Z,2.90
2022-11-20T03:55:11.791Z,3.00
2022-11-20T03:56:11.305Z,2.90
2022-11-20T03:57:11.295Z,2.90
2022-11-20T03:58:11.285Z,2.80
2022-11-20T03:59:11.278Z,2.80
2022-11-20T04:00:11.246Z,2.70
2022-11-20T04:01:12.317Z,2.80
2022-11-20T04:02:11.260Z,3.00
2022-11-20T04:03:11.231Z,3.00
2022-11-20T04:04:11.192Z,2.90
2022-11-20T04:05:11.240Z,3.30
2022-11-20T04:06:11.965Z,2.80
2022-11-20T04:07:11.284Z,2.50
2022-11-20T04:08:11.177Z,2.90
2022-11-20T04:09:11.172Z,2.70
2022-11-20T04:10:11.156Z,3.00
2022-11-20T04:11:12.151Z,2.80
2022-11-20T04:12:11.687Z,2.60
2022-11-20T04:13:11.153Z,2.70
2022-11-20T04:14:11.094Z,2.80
2022-11-20T04:15:11.133Z,2.60
2022-11-20T04:16:11.092Z,2.50
2022-11-20T04:17:11.105Z,2.60
2022-11-20T04:18:11.053Z,2.70
2022-11-20T04:19:11.088Z,2.70
2022-11-20T04:20:12.149Z,2.80
2022-11-20T04:21:11.040Z,2.50
2022-11-20T04:22:11.485Z,3.00
2022-11-20T04:23:11.018Z,2.70
2022-11-20T04:24:10.982Z,2.40
2022-11-20T04:25:11.031Z,2.70
2022-11-20T04:26:10.966Z,2.50
2022-11-20T04:27:11.018Z,2.60
2022-11-20T04:28:11.605Z,2.80
2022-11-20T04:29:10.956Z,2.40
2022-11-20T04:30:10.943Z,2.90
2022-11-20T04:31:10.935Z,2.80
2022-11-20T04:32:10.908Z,2.60
2022-11-20T04:33:12.092Z,2.60
2022-11-20T04:34:10.932Z,2.60
2022-11-20T04:35:10.868Z,2.40
2022-11-20T04:36:10.882Z,2.60
2022-11-20T04:37:10.873Z,2.80
2022-11-20T04:38:10.869Z,2.60
2022-11-20T04:39:10.853Z,2.70
2022-11-20T04:40:10.866Z,2.50
2022-11-20T04:41:13.568Z,2.50
2022-11-20T04:42:10.846Z,2.50
2022-11-20T04:43:10.780Z,2.80
2022-11-20T04:44:10.803Z,2.60
2022-11-20T04:45:10.789Z,2.80
2022-11-20T04:46:11.246Z,2.70
2022-11-20T04:47:10.766Z,2.70
2022-11-20T04:48:10.817Z,2.70
2022-11-20T04:49:10.718Z,2.70
2022-11-20T04:50:10.786Z,2.80
2022-11-20T04:51:10.725Z,2.50
2022-11-20T04:52:10.745Z,2.60
2022-11-20T04:53:10.690Z,2.50
2022-11-20T04:54:10.720Z,2.60
2022-11-20T04:55:10.656Z,2.50
2022-11-20T04:56:10.673Z,2.70
2022-11-20T04:57:14.387Z,2.60
2022-11-20T04:58:11.792Z,2.60
2022-11-20T04:59:11.490Z,2.80
2022-11-20T05:00:10.688Z,2.30
2022-11-20T05:01:10.669Z,2.50
2022-11-20T05:02:10.589Z,2.50
2022-11-20T05:03:10.627Z,2.30
2022-11-20T05:04:10.593Z,2.60
2022-11-20T05:05:10.579Z,2.70
2022-11-20T05:06:10.595Z,2.20
2022-11-20T05:07:11.050Z,2.50
2022-11-20T05:08:10.546Z,2.20
2022-11-20T05:09:10.534Z,2.50
2022-11-20T05:10:10.523Z,2.60
2022-11-20T05:11:10.908Z,2.20
2022-11-20T05:12:10.530Z,2.40
2022-11-20T05:13:10.467Z,2.30
2022-11-20T05:14:10.534Z,2.90
2022-11-20T05:15:10.473Z,2.60
2022-11-20T05:16:10.484Z,2.30
2022-11-20T05:17:10.451Z,2.20
2022-11-20T05:18:10.471Z,2.30
2022-11-20T05:19:10.429Z,2.30
2022-11-20T05:20:10.446Z,2.60
2022-11-20T05:21:10.385Z,2.30
2022-11-20T05:22:11.642Z,2.50
2022-11-20T05:23:10.388Z,2.40
2022-11-20T05:24:10.404Z,2.30
2022-11-20T05:25:10.354Z,2.50
2022-11-20T05:26:10.388Z,2.30
2022-11-20T05:27:10.326Z,2.20
2022-11-20T05:28:10.335Z,2.60
2022-11-20T05:29:10.346Z,2.10
2022-11-20T05:30:10.313Z,2.20
2022-11-20T05:31:10.304Z,2.30
2022-11-20T05:32:10.319Z,2.30
2022-11-20T05:33:10.255Z,2.30
2022-11-20T05:34:10.302Z,2.10
2022-11-20T05:35:10.239Z,2.40
2022-11-20T05:36:10.268Z,2.10
2022-11-20T05:37:10.237Z,2.20
2022-11-20T05:38:10.230Z,2.30
2022-11-20T05:39:10.240Z,2.20
2022-11-20T05:40:10.238Z,2.30
2022-11-20T05:41:15.780Z,2.20
2022-11-20T05:42:10.212Z,2.20
2022-11-20T05:43:10.146Z,2.80
2022-11-20T05:44:10.164Z,2.30
2022-11-20T05:45:10.157Z,2.30
2022-11-20T05:46:10.149Z,2.10
2022-11-20T05:47:11.144Z,2.40
2022-11-20T05:48:10.156Z,2.20
2022-11-20T05:49:10.085Z,2.20
2022-11-20T05:50:10.130Z,2.40
2022-11-20T05:51:11.293Z,2.30
2022-11-20T05:52:10.083Z,2.10
2022-11-20T05:53:10.077Z,2.30
2022-11-20T05:54:10.089Z,2.30
2022-11-20T05:55:10.022Z,2.30
2022-11-20T05:56:10.304Z,2.40
2022-11-20T05:57:10.105Z,2.10
2022-11-20T05:58:11.778Z,2.10
2022-11-20T05:59:10.009Z,2.20
2022-11-20T06:00:10.065Z,2.10
2022-11-20T06:01:09.964Z,2.10
2022-11-20T06:02:10.814Z,2.10
2022-11-20T06:03:10.110Z,2.10
2022-11-20T06:04:09.957Z,2.00
2022-11-20T06:05:09.946Z,2.00
2022-11-20T06:06:09.936Z,2.00
2022-11-20T06:07:10.214Z,1.90
2022-11-20T06:08:09.938Z,2.20
2022-11-20T06:09:09.889Z,2.50
2022-11-20T06:10:09.890Z,2.30
2022-11-20T06:11:09.895Z,2.00
2022-11-20T06:12:10.577Z,2.20
2022-11-20T06:13:09.834Z,2.10
2022-11-20T06:14:09.876Z,2.60
2022-11-20T06:15:09.814Z,2.10
2022-11-20T06:16:09.835Z,2.20
2022-11-20T06:17:10.615Z,2.10
2022-11-20T06:18:09.808Z,1.90
2022-11-20T06:19:09.794Z,1.90
2022-11-20T06:20:09.827Z,2.30
2022-11-20T06:21:09.749Z,2.00
2022-11-20T06:22:10.934Z,2.20
2022-11-20T06:23:09.740Z,2.00
2022-11-20T06:24:09.761Z,2.00
2022-11-20T06:25:09.732Z,2.00
2022-11-20T06:26:09.757Z,2.30
2022-11-20T06:27:09.684Z,2.30
2022-11-20T06:28:09.702Z,1.90
2022-11-20T06:29:09.764Z,2.10
2022-11-20T06:30:09.681Z,1.80
2022-11-20T06:31:09.671Z,1.90
2022-11-20T06:32:09.690Z,2.00
2022-11-20T06:33:09.623Z,2.20
2022-11-20T06:34:09.667Z,2.30
2022-11-20T06:35:09.599Z,2.00
2022-11-20T06:36:11.105Z,2.00
2022-11-20T06:37:09.680Z,2.00
2022-11-20T06:38:09.600Z,2.20
2022-11-20T06:39:09.583Z,2.10
2022-11-20T06:40:09.602Z,2.10
2022-11-20T06:41:10.312Z,2.00
2022-11-20T06:42:09.579Z,2.10
2022-11-20T06:43:09.583Z,1.90
2022-11-20T06:44:09.541Z,2.10
2022-11-20T06:45:09.524Z,2.20
2022-11-20T06:46:09.514Z,1.90
2022-11-20T06:47:09.853Z,2.30
2022-11-20T06:48:09.516Z,1.90
2022-11-20T06:49:09.455Z,2.20
2022-11-20T06:50:09.503Z,2.10
2022-11-20T06:51:09.501Z,2.10
2022-11-20T06:52:09.448Z,2.20
2022-11-20T06:53:09.465Z,2.30
2022-11-20T06:54:09.426Z,2.00
2022-11-20T06:55:09.416Z,2.10
2022-11-20T06:56:09.436Z,1.80
2022-11-20T06:57:09.375Z,2.10
2022-11-20T06:58:09.558Z,2.00
2022-11-20T06:59:09.402Z,2.20
2022-11-20T07:00:09.401Z,2.10
2022-11-20T07:01:09.364Z,2.10
2022-11-20T07:02:09.370Z,2.20
2022-11-20T07:03:09.345Z,2.00
2022-11-20T07:04:09.332Z,1.90
2022-11-20T07:05:09.323Z,1.90
2022-11-20T07:06:09.306Z,2.10
2022-11-20T07:07:09.319Z,2.20
2022-11-20T07:08:09.306Z,2.10
2022-11-20T07:09:12.687Z,1.90
2022-11-20T07:10:09.304Z,2.10
2022-11-20T07:11:09.241Z,2.10
2022-11-20T07:12:09.240Z,2.00
2022-11-20T07:13:09.227Z,2.10
2022-11-20T07:14:09.244Z,2.20
2022-11-20T07:15:09.923Z,2.10
2022-11-20T07:16:09.219Z,2.10
2022-11-20T07:17:09.183Z,2.20
2022-11-20T07:18:09.176Z,1.80
2022-11-20T07:19:09.197Z,2.00
2022-11-20T07:20:10.528Z,2.10
2022-11-20T07:21:09.116Z,2.20
2022-11-20T07:22:09.167Z,1.90
2022-11-20T07:23:09.094Z,2.10
2022-11-20T07:24:09.218Z,2.20
2022-11-20T07:25:09.099Z,2.20
2022-11-20T07:26:09.097Z,2.20
2022-11-20T07:27:09.081Z,2.20
2022-11-20T07:28:09.100Z,2.70
2022-11-20T07:29:09.034Z,2.50
2022-11-20T07:30:09.452Z,2.40
2022-11-20T07:31:09.252Z,2.20
2022-11-20T07:32:09.055Z,2.20
2022-11-20T07:33:08.991Z,2.00
2022-11-20T07:34:09.033Z,2.50
2022-11-20T07:35:08.970Z,2.20
2022-11-20T07:36:09.062Z,2.00
2022-11-20T07:37:10.572Z,2.20
2022-11-20T07:38:09.008Z,2.30
2022-11-20T07:39:08.954Z,2.60
2022-11-20T07:40:08.971Z,2.20
2022-11-20T07:41:08.906Z,2.00
2022-11-20T07:42:09.654Z,2.10
2022-11-20T07:43:08.885Z,2.30
2022-11-20T07:44:08.903Z,2.10
2022-11-20T07:45:08.889Z,2.30
2022-11-20T07:46:08.891Z,2.20
2022-11-20T07:47:08.870Z,2.40
2022-11-20T07:48:10.120Z,2.10
2022-11-20T07:49:08.826Z,2.10
2022-11-20T07:50:08.863Z,2.40
2022-11-20T07:51:08.805Z,2.10
2022-11-20T07:52:08.818Z,2.10
2022-11-20T07:53:08.805Z,2.10
2022-11-20T07:54:08.826Z,2.20
2022-11-20T07:55:08.801Z,2.10
2022-11-20T07:56:08.879Z,2.30
2022-11-20T07:57:08.738Z,2.20
2022-11-20T07:58:08.779Z,2.40
2022-11-20T07:59:08.715Z,2.30
2022-11-20T08:00:08.732Z,2.20
2022-11-20T08:01:08.787Z,2.30
2022-11-20T08:02:08.740Z,2.10
2022-11-20T08:03:08.672Z,2.30
2022-11-20T08:04:08.693Z,2.30
2022-11-20T08:05:08.678Z,2.10
2022-11-20T08:06:08.676Z,2.30
2022-11-20T08:07:08.773Z,2.50
2022-11-20T08:08:08.676Z,2.40
2022-11-20T08:09:08.609Z,2.00
2022-11-20T08:10:08.653Z,2.20
2022-11-20T08:11:08.589Z,2.30
2022-11-20T08:12:08.622Z,2.50
2022-11-20T08:13:29.615Z,2.60
2022-11-20T08:14:08.594Z,2.90
2022-11-20T08:15:13.098Z,2.60
2022-11-20T08:16:08.592Z,2.80
2022-11-20T08:17:08.524Z,2.80
2022-11-20T08:18:31.374Z,2.90
2022-11-20T08:19:08.551Z,2.80
2022-11-20T08:20:08.553Z,3.00
2022-11-20T08:21:08.486Z,2.80
2022-11-20T08:22:08.528Z,2.90
2022-11-20T08:23:08.465Z,3.10
2022-11-20T08:24:08.487Z,3.10
2022-11-20T08:25:08.468Z,3.20
2022-11-20T08:26:08.464Z,3.30
2022-11-20T08:27:08.448Z,3.30
2022-11-20T08:28:18.676Z,3.00
2022-11-20T08:29:08.713Z,3.40
2022-11-20T08:30:08.446Z,3.30
2022-11-20T08:31:08.382Z,3.10
2022-11-20T08:32:08.399Z,3.60
2022-11-20T08:33:08.382Z,3.60
2022-11-20T08:34:09.831Z,3.50
2022-11-20T08:35:08.365Z,3.80
2022-11-20T08:36:09.056Z,3.40
2022-11-20T08:37:08.348Z,3.80
2022-11-20T08:38:08.334Z,3.70
2022-11-20T08:39:09.047Z,3.40
2022-11-20T08:40:08.355Z,3.60
2022-11-20T08:41:08.273Z,3.40
2022-11-20T08:42:08.323Z,3.70
2022-11-20T08:43:08.256Z,3.40
2022-11-20T08:44:09.702Z,3.90
2022-11-20T08:45:08.257Z,3.70
2022-11-20T08:46:08.247Z,3.70
2022-11-20T08:47:08.383Z,4.00
2022-11-20T08:48:08.819Z,4.70
2022-11-20T08:49:08.191Z,4.30
2022-11-20T08:50:08.214Z,4.10
2022-11-20T08:51:08.198Z,4.50
2022-11-20T08:52:08.170Z,4.00
2022-11-20T08:53:08.210Z,4.30
2022-11-20T08:54:08.137Z,4.20
2022-11-20T08:55:08.178Z,4.70
2022-11-20T08:56:08.144Z,4.30
2022-11-20T08:57:08.276Z,4.30
2022-11-20T08:58:08.159Z,3.80
2022-11-20T08:59:44.062Z,4.60
2022-11-20T09:00:08.781Z,4.20
2022-11-20T09:01:08.283Z,4.30
2022-11-20T09:02:08.065Z,4.30
2022-11-20T09:03:08.094Z,4.80
2022-11-20T09:04:08.078Z,4.70
2022-11-20T09:05:08.047Z,4.70
2022-11-20T09:06:08.057Z,4.60
2022-11-20T09:07:08.109Z,4.80
2022-11-20T09:08:08.013Z,4.90
2022-11-20T09:09:08.008Z,4.70
2022-11-20T09:10:23.640Z,5.20
2022-11-20T09:11:07.990Z,4.90
2022-11-20T09:12:08.036Z,5.30
2022-11-20T09:13:08.032Z,5.20
2022-11-20T09:14:07.931Z,5.30
2022-11-20T09:15:07.940Z,5.70
2022-11-20T09:16:07.930Z,5.50
2022-11-20T09:17:07.923Z,5.60
2022-11-20T09:18:08.531Z,5.60
2022-11-20T09:20:07.870Z,5.30
2022-11-20T09:21:08.008Z,5.20
2022-11-20T09:22:07.879Z,6.00
2022-11-20T09:23:08.228Z,5.60
2022-11-20T09:24:07.822Z,5.70
2022-11-20T09:25:07.861Z,5.60
2022-11-20T09:26:07.802Z,5.60
2022-11-20T09:27:08.284Z,5.80
2022-11-20T09:28:07.805Z,6.10
2022-11-20T09:29:07.794Z,5.50
2022-11-20T09:30:07.784Z,6.50
2022-11-20T09:31:07.775Z,5.10
2022-11-20T09:32:08.398Z,5.60
2022-11-20T09:33:07.970Z,5.60
2022-11-20T09:34:07.720Z,5.50
2022-11-20T09:35:07.768Z,5.50
2022-11-20T09:36:07.718Z,5.60
2022-11-20T09:37:07.983Z,5.60
2022-11-20T09:38:07.675Z,5.10
2022-11-20T09:39:07.724Z,5.10
2022-11-20T09:40:07.681Z,4.80
2022-11-20T09:41:07.668Z,4.90
2022-11-20T09:42:07.656Z,5.20
2022-11-20T09:43:07.648Z,4.60
2022-11-20T09:44:07.630Z,5.10
2022-11-20T09:45:07.652Z,5.00
2022-11-20T09:46:07.592Z,5.30
2022-11-20T09:47:07.635Z,4.50
2022-11-20T09:48:07.596Z,4.70
2022-11-20T09:49:07.622Z,4.90
2022-11-20T09:50:07.603Z,4.70
2022-11-20T09:51:07.569Z,4.80
2022-11-20T09:52:07.531Z,5.10
2022-11-20T09:53:07.568Z,5.00
2022-11-20T09:54:07.504Z,5.30
2022-11-20T09:55:07.568Z,5.00
2022-11-20T09:56:07.508Z,5.20
2022-11-20T09:57:07.497Z,4.90
2022-11-20T09:58:07.491Z,5.00
2022-11-20T09:59:07.505Z,5.20
2022-11-20T10:00:07.443Z,4.70
2022-11-20T10:01:07.604Z,4.80
2022-11-20T10:02:07.429Z,4.90
2022-11-20T10:03:07.505Z,4.70
2022-11-20T10:04:07.422Z,5.20
2022-11-20T10:05:07.415Z,4.70
2022-11-20T10:06:07.403Z,4.80
2022-11-20T10:08:07.463Z,4.10
2022-11-20T10:09:07.401Z,4.30
2022-11-20T10:10:07.362Z,3.80
2022-11-20T10:11:07.384Z,3.80
2022-11-20T10:12:07.312Z,4.70
2022-11-20T10:13:07.361Z,4.30
2022-11-20T10:14:07.292Z,5.40
2022-11-20T10:15:07.335Z,4.60
2022-11-20T10:16:07.303Z,4.50
2022-11-20T10:17:07.287Z,4.50
2022-11-20T10:18:07.966Z,4.20
2022-11-20T10:19:07.267Z,4.20
2022-11-20T10:20:07.232Z,4.00
2022-11-20T10:21:07.272Z,4.40
2022-11-20T10:22:07.219Z,4.20
2022-11-20T10:23:07.275Z,4.00
2022-11-20T10:24:07.217Z,4.30
2022-11-20T10:25:07.204Z,4.20
2022-11-20T10:26:07.173Z,4.00
2022-11-20T10:27:07.209Z,3.70
2022-11-20T10:28:07.169Z,3.80
2022-11-20T10:29:21.386Z,4.10
2022-11-20T10:30:07.192Z,3.80
2022-11-20T10:31:07.195Z,3.70
2022-11-20T10:32:07.151Z,3.80
2022-11-20T10:33:07.194Z,3.70
2022-11-20T10:34:12.611Z,4.10
2022-11-20T10:35:07.128Z,4.40
2022-11-20T10:36:07.085Z,3.60
2022-11-20T10:37:07.169Z,4.20
2022-11-20T10:38:07.065Z,3.80
2022-11-20T10:39:07.719Z,4.30
2022-11-20T10:40:07.018Z,3.90
2022-11-20T10:41:07.059Z,4.00
2022-11-20T10:42:07.020Z,4.40
2022-11-20T10:43:07.472Z,3.50
2022-11-20T10:44:07.020Z,4.50
2022-11-20T10:45:07.148Z,3.80
2022-11-20T10:46:06.954Z,3.70
2022-11-20T10:47:06.997Z,3.60
2022-11-20T10:48:06.958Z,3.70
2022-11-20T10:49:06.983Z,3.80
2022-11-20T10:50:06.955Z,3.60
2022-11-20T10:51:07.566Z,3.70
2022-11-20T10:52:07.169Z,3.50
2022-11-20T10:53:06.932Z,3.90
2022-11-20T10:54:06.984Z,3.60
2022-11-20T10:55:06.930Z,3.90
2022-11-20T10:56:06.877Z,3.50
2022-11-20T10:57:06.865Z,3.70
2022-11-20T10:58:06.851Z,3.90
2022-11-20T10:59:06.843Z,3.50
2022-11-20T11:00:06.806Z,3.80
2022-11-20T11:01:06.904Z,3.80
2022-11-20T11:02:06.783Z,3.40
2022-11-20T11:03:06.824Z,4.00
2022-11-20T11:04:06.786Z,4.30
2022-11-20T11:05:11.640Z,4.20
2022-11-20T11:06:06.798Z,3.50
2022-11-20T11:07:06.775Z,3.80
2022-11-20T11:08:06.736Z,3.90
2022-11-20T11:09:06.763Z,3.10
2022-11-20T11:10:06.699Z,3.70
2022-11-20T11:11:06.857Z,3.20
2022-11-20T11:12:07.311Z,3.30
2022-11-20T11:13:06.698Z,3.60
2022-11-20T11:14:06.662Z,2.90
2022-11-20T11:15:06.700Z,3.30
2022-11-20T11:16:06.659Z,2.90
2022-11-20T11:17:06.656Z,2.90
2022-11-20T11:18:06.638Z,3.10
2022-11-20T11:19:06.697Z,3.00
2022-11-20T11:20:06.592Z,2.90
2022-11-20T11:21:06.637Z,2.80
2022-11-20T11:22:06.572Z,3.00
2022-11-20T11:23:06.740Z,3.00
2022-11-20T11:24:34.777Z,2.80
2022-11-20T11:25:06.612Z,3.10
2022-11-20T11:26:06.553Z,3.40
2022-11-20T11:27:06.542Z,3.10
2022-11-20T11:28:06.511Z,3.90
2022-11-20T11:29:13.726Z,6.30
2022-11-20T11:30:06.513Z,6.60
2022-11-20T11:31:06.524Z,8.40
2022-11-20T11:32:06.465Z,8.70
2022-11-20T11:33:06.511Z,9.20
2022-11-20T11:34:06.456Z,9.40
2022-11-20T11:35:06.489Z,9.60
2022-11-20T11:36:06.447Z,10.00
2022-11-20T11:37:06.441Z,10.20
2022-11-20T11:38:06.428Z,10.40
2022-11-20T11:39:06.438Z,10.10
2022-11-20T11:41:06.439Z,10.80
2022-11-20T11:42:06.364Z,10.30
2022-11-20T11:43:06.408Z,10.80
2022-11-20T11:44:07.128Z,9.80
2022-11-20T11:45:06.378Z,9.40
2022-11-20T11:46:06.320Z,8.00
2022-11-20T11:47:06.365Z,6.50
2022-11-20T11:48:06.322Z,5.60
2022-11-20T11:49:06.341Z,5.50
2022-11-20T11:50:06.302Z,5.10
2022-11-20T11:51:06.295Z,4.70
2022-11-20T11:52:06.253Z,4.90
2022-11-20T11:53:06.298Z,6.50
2022-11-20T11:54:06.232Z,5.30
2022-11-20T11:55:11.480Z,6.40
2022-11-20T11:56:06.247Z,4.80
2022-11-20T11:57:06.239Z,4.40
2022-11-20T11:58:06.219Z,4.20
2022-11-20T11:59:06.207Z,4.00
2022-11-20T12:00:06.210Z,4.00
2022-11-20T12:01:06.214Z,4.70
2022-11-20T12:02:06.193Z,4.30
2022-11-20T12:03:06.195Z,3.90
2022-11-20T12:04:06.161Z,4.10
2022-11-20T12:05:06.143Z,4.00
2022-11-20T12:06:06.133Z,3.90
2022-11-20T12:07:31.131Z,3.80
2022-11-20T12:08:12.199Z,4.00
2022-11-20T12:09:06.173Z,4.00
2022-11-20T12:10:06.065Z,3.50
2022-11-20T12:11:06.109Z,3.60
2022-11-20T12:12:06.069Z,3.90
2022-11-20T12:13:06.058Z,4.00
2022-11-20T12:14:06.119Z,3.60
2022-11-20T12:15:06.037Z,3.60
2022-11-20T12:16:06.000Z,3.40
2022-11-20T12:17:06.042Z,3.70
2022-11-20T12:18:06.007Z,3.60
2022-11-20T12:19:05.998Z,3.50
2022-11-20T12:20:05.973Z,3.60
2022-11-20T12:21:06.008Z,3.40
2022-11-20T12:22:05.940Z,3.20
2022-11-20T12:23:05.978Z,3.80
2022-11-20T12:24:05.940Z,3.40
2022-11-20T12:25:05.932Z,3.20
2022-11-20T12:26:05.924Z,3.50
2022-11-20T12:27:06.754Z,3.20
2022-11-20T12:28:05.878Z,3.00
2022-11-20T12:29:05.921Z,3.40
2022-11-20T12:30:05.850Z,3.00
2022-11-20T12:31:05.895Z,3.40
2022-11-20T12:32:05.855Z,3.60
2022-11-20T12:33:05.847Z,3.50
2022-11-20T12:34:05.842Z,3.20
2022-11-20T12:35:11.128Z,3.20
2022-11-20T12:36:05.823Z,3.20
2022-11-20T12:37:05.804Z,3.30
2022-11-20T12:38:05.790Z,3.10
2022-11-20T12:39:26.781Z,3.10
2022-11-20T12:40:05.743Z,3.20
2022-11-20T12:41:05.787Z,3.00
2022-11-20T12:42:05.725Z,3.30
2022-11-20T12:43:05.774Z,3.10
2022-11-20T12:44:05.728Z,3.10
2022-11-20T12:45:07.659Z,2.80
2022-11-20T12:46:05.706Z,2.90
2022-11-20T12:47:05.701Z,3.00
2022-11-20T12:48:05.659Z,3.20
2022-11-20T12:49:05.702Z,3.00
2022-11-20T12:50:07.400Z,2.90
2022-11-20T12:51:14.951Z,2.90
2022-11-20T12:52:05.626Z,2.90
2022-11-20T12:53:05.663Z,3.10
2022-11-20T12:54:05.595Z,3.10
2022-11-20T12:55:05.639Z,2.70
2022-11-20T12:56:05.781Z,3.40
2022-11-20T12:57:06.161Z,3.60
2022-11-20T12:58:05.581Z,4.10
2022-11-20T12:59:05.571Z,4.60
2022-11-20T13:00:05.534Z,4.60
2022-11-20T13:01:05.602Z,4.90
2022-11-20T13:02:05.512Z,4.50
2022-11-20T13:03:05.560Z,5.40
2022-11-20T13:04:09.380Z,5.90
2022-11-20T13:05:05.532Z,5.50
2022-11-20T13:06:05.499Z,5.20
2022-11-20T13:07:05.549Z,6.40
2022-11-20T13:08:05.521Z,6.50
2022-11-20T13:09:05.438Z,6.50
2022-11-20T13:10:07.618Z,5.90
2022-11-20T13:11:05.424Z,6.00
2022-11-20T13:12:05.434Z,5.70
2022-11-20T13:13:05.426Z,6.10
2022-11-20T13:14:05.415Z,6.10
2022-11-20T13:15:05.399Z,6.30
2022-11-20T13:16:05.421Z,6.50
2022-11-20T13:17:06.314Z,5.60
2022-11-20T13:18:05.402Z,6.50
2022-11-20T13:19:05.335Z,6.10
2022-11-20T13:20:05.431Z,6.80
2022-11-20T13:21:05.341Z,5.70